sensor_id;sensor_type;location;lat;lon;timestamp;pressure;altitude;pressure_sealevel;temperature;humidity
28004;BME280;15330;51.234;6.754;2022-08-24T00:01:40;101226.09;;;24.13;56.17
28004;BME280;15330;51.234;6.754;2022-08-24T00:04:05;101234.44;;;24.07;56.85
28004;BME280;15330;51.234;6.754;2022-08-24T00:06:31;101223.97;;;24.04;56.83
28004;BME280;15330;51.234;6.754;2022-08-24T00:08:57;101230.75;;;24.01;57.19
28004;BME280;15330;51.234;6.754;2022-08-24T00:11:23;101232.69;;;23.89;57.05
28004;BME280;15330;51.234;6.754;2022-08-24T00:13:49;101236.59;;;23.93;57.16
28004;BME280;15330;51.234;6.754;2022-08-24T00:16:16;101232.31;;;23.97;57.49
28004;BME280;15330;51.234;6.754;2022-08-24T00:18:44;101233.88;;;23.82;58.24
28004;BME280;15330;51.234;6.754;2022-08-24T00:21:11;101237.06;;;23.90;57.81
28004;BME280;15330;51.234;6.754;2022-08-24T00:23:37;101238.91;;;23.73;58.62
28004;BME280;15330;51.234;6.754;2022-08-24T00:26:03;101236.63;;;23.47;59.14
28004;BME280;15330;51.234;6.754;2022-08-24T00:28:28;101227.22;;;23.77;58.16
28004;BME280;15330;51.234;6.754;2022-08-24T00:30:54;101230.22;;;23.88;57.96
28004;BME280;15330;51.234;6.754;2022-08-24T00:33:20;101231.50;;;23.85;58.06
28004;BME280;15330;51.234;6.754;2022-08-24T00:35:45;101225.59;;;23.76;58.14
28004;BME280;15330;51.234;6.754;2022-08-24T00:38:11;101231.28;;;23.75;58.16
28004;BME280;15330;51.234;6.754;2022-08-24T00:40:39;101228.56;;;23.87;57.92
28004;BME280;15330;51.234;6.754;2022-08-24T00:43:08;101221.78;;;23.77;58.55
28004;BME280;15330;51.234;6.754;2022-08-24T00:48:29;101233.66;;;23.71;59.03
28004;BME280;15330;51.234;6.754;2022-08-24T00:51:01;101232.13;;;23.64;59.34
28004;BME280;15330;51.234;6.754;2022-08-24T00:53:36;101237.22;;;23.49;59.76
28004;BME280;15330;51.234;6.754;2022-08-24T00:56:11;101229.88;;;23.61;59.78
28004;BME280;15330;51.234;6.754;2022-08-24T00:59:12;101236.28;;;23.43;60.23
28004;BME280;15330;51.234;6.754;2022-08-24T01:01:40;101227.88;;;23.56;59.50
28004;BME280;15330;51.234;6.754;2022-08-24T01:04:09;101231.06;;;23.65;59.61
28004;BME280;15330;51.234;6.754;2022-08-24T01:06:40;101232.00;;;23.70;59.02
28004;BME280;15330;51.234;6.754;2022-08-24T01:09:05;101234.63;;;23.65;59.33
28004;BME280;15330;51.234;6.754;2022-08-24T01:11:32;101235.56;;;23.71;59.38
28004;BME280;15330;51.234;6.754;2022-08-24T01:13:58;101234.13;;;23.68;59.76
28004;BME280;15330;51.234;6.754;2022-08-24T01:16:24;101233.22;;;23.51;60.84
28004;BME280;15330;51.234;6.754;2022-08-24T01:19:36;101226.91;;;23.51;60.99
28004;BME280;15330;51.234;6.754;2022-08-24T01:24:46;101234.75;;;23.35;62.01
28004;BME280;15330;51.234;6.754;2022-08-24T01:27:12;101237.38;;;23.54;61.63
28004;BME280;15330;51.234;6.754;2022-08-24T01:29:40;101235.25;;;23.56;61.27
28004;BME280;15330;51.234;6.754;2022-08-24T01:32:07;101233.88;;;23.47;61.61
28004;BME280;15330;51.234;6.754;2022-08-24T01:34:33;101236.34;;;22.90;63.87
28004;BME280;15330;51.234;6.754;2022-08-24T01:36:59;101239.22;;;23.30;62.34
28004;BME280;15330;51.234;6.754;2022-08-24T01:39:33;101232.00;;;23.35;62.24
28004;BME280;15330;51.234;6.754;2022-08-24T01:41:59;101232.47;;;23.32;62.59
28004;BME280;15330;51.234;6.754;2022-08-24T01:44:27;101232.59;;;23.37;62.32
28004;BME280;15330;51.234;6.754;2022-08-24T01:46:54;101237.09;;;23.32;62.31
28004;BME280;15330;51.234;6.754;2022-08-24T01:49:22;101235.91;;;23.28;62.69
28004;BME280;15330;51.234;6.754;2022-08-24T01:51:47;101235.44;;;23.31;62.73
28004;BME280;15330;51.234;6.754;2022-08-24T01:54:13;101233.66;;;23.13;63.13
28004;BME280;15330;51.234;6.754;2022-08-24T01:56:39;101233.88;;;23.12;63.10
28004;BME280;15330;51.234;6.754;2022-08-24T01:59:05;101236.63;;;23.23;63.07
28004;BME280;15330;51.234;6.754;2022-08-24T02:01:35;101233.63;;;23.01;63.57
28004;BME280;15330;51.234;6.754;2022-08-24T02:04:02;101244.91;;;23.17;63.16
28004;BME280;15330;51.234;6.754;2022-08-24T02:06:28;101246.25;;;23.14;63.23
28004;BME280;15330;51.234;6.754;2022-08-24T02:08:54;101259.75;;;23.21;63.09
28004;BME280;15330;51.234;6.754;2022-08-24T02:11:20;101253.84;;;23.24;63.21
28004;BME280;15330;51.234;6.754;2022-08-24T02:13:45;101250.13;;;23.18;63.14
28004;BME280;15330;51.234;6.754;2022-08-24T02:16:11;101251.44;;;23.04;63.70
28004;BME280;15330;51.234;6.754;2022-08-24T02:18:38;101245.88;;;23.11;63.33
28004;BME280;15330;51.234;6.754;2022-08-24T02:21:06;101233.75;;;23.06;63.54
28004;BME280;15330;51.234;6.754;2022-08-24T02:23:33;101245.28;;;23.20;63.08
28004;BME280;15330;51.234;6.754;2022-08-24T02:25:59;101252.50;;;23.03;63.37
28004;BME280;15330;51.234;6.754;2022-08-24T02:28:25;101254.75;;;22.94;64.02
28004;BME280;15330;51.234;6.754;2022-08-24T02:30:50;101255.94;;;22.98;63.58
28004;BME280;15330;51.234;6.754;2022-08-24T02:33:17;101251.50;;;22.86;63.84
28004;BME280;15330;51.234;6.754;2022-08-24T02:35:43;101267.19;;;22.90;63.93
28004;BME280;15330;51.234;6.754;2022-08-24T02:38:09;101264.91;;;22.87;64.33
28004;BME280;15330;51.234;6.754;2022-08-24T02:40:34;101260.56;;;22.98;63.97
28004;BME280;15330;51.234;6.754;2022-08-24T02:43:00;101263.84;;;22.88;63.79
28004;BME280;15330;51.234;6.754;2022-08-24T02:45:25;101254.38;;;22.91;63.49
28004;BME280;15330;51.234;6.754;2022-08-24T02:47:51;101257.22;;;22.96;63.68
28004;BME280;15330;51.234;6.754;2022-08-24T02:50:17;101250.81;;;22.90;63.60
28004;BME280;15330;51.234;6.754;2022-08-24T02:52:43;101255.91;;;22.87;63.67
28004;BME280;15330;51.234;6.754;2022-08-24T02:55:12;101256.13;;;22.85;63.65
28004;BME280;15330;51.234;6.754;2022-08-24T02:57:38;101252.44;;;22.80;63.82
28004;BME280;15330;51.234;6.754;2022-08-24T03:00:07;101253.75;;;22.77;63.90
28004;BME280;15330;51.234;6.754;2022-08-24T03:02:33;101248.44;;;22.82;63.71
28004;BME280;15330;51.234;6.754;2022-08-24T03:04:59;101248.50;;;22.76;63.24
28004;BME280;15330;51.234;6.754;2022-08-24T03:07:24;101255.94;;;22.68;63.46
28004;BME280;15330;51.234;6.754;2022-08-24T03:09:49;101258.13;;;22.78;63.50
28004;BME280;15330;51.234;6.754;2022-08-24T03:12:15;101259.91;;;22.84;63.00
28004;BME280;15330;51.234;6.754;2022-08-24T03:14:41;101251.63;;;22.79;62.90
28004;BME280;15330;51.234;6.754;2022-08-24T03:17:07;101259.72;;;22.67;63.57
28004;BME280;15330;51.234;6.754;2022-08-24T03:19:33;101264.41;;;22.49;63.99
28004;BME280;15330;51.234;6.754;2022-08-24T03:21:58;101259.78;;;22.49;63.87
28004;BME280;15330;51.234;6.754;2022-08-24T03:24:24;101256.59;;;22.52;63.67
28004;BME280;15330;51.234;6.754;2022-08-24T03:26:49;101255.94;;;22.68;63.33
28004;BME280;15330;51.234;6.754;2022-08-24T03:29:17;101254.66;;;22.71;63.25
28004;BME280;15330;51.234;6.754;2022-08-24T03:31:43;101258.72;;;22.50;63.56
28004;BME280;15330;51.234;6.754;2022-08-24T03:34:08;101258.84;;;22.55;63.53
28004;BME280;15330;51.234;6.754;2022-08-24T03:36:39;101254.16;;;22.62;63.40
28004;BME280;15330;51.234;6.754;2022-08-24T03:39:05;101252.72;;;22.60;63.56
28004;BME280;15330;51.234;6.754;2022-08-24T03:41:31;101254.16;;;22.44;63.85
28004;BME280;15330;51.234;6.754;2022-08-24T03:43:56;101262.34;;;22.44;64.13
28004;BME280;15330;51.234;6.754;2022-08-24T03:46:27;101272.75;;;22.36;64.58
28004;BME280;15330;51.234;6.754;2022-08-24T03:48:54;101261.72;;;22.30;64.36
28004;BME280;15330;51.234;6.754;2022-08-24T03:51:23;101259.34;;;22.34;64.39
28004;BME280;15330;51.234;6.754;2022-08-24T03:53:50;101256.09;;;22.25;64.34
28004;BME280;15330;51.234;6.754;2022-08-24T03:56:16;101254.94;;;22.33;63.94
28004;BME280;15330;51.234;6.754;2022-08-24T03:58:42;101253.53;;;22.30;63.88
28004;BME280;15330;51.234;6.754;2022-08-24T04:01:08;101254.41;;;22.43;63.59
28004;BME280;15330;51.234;6.754;2022-08-24T04:03:39;101249.72;;;22.50;63.62
28004;BME280;15330;51.234;6.754;2022-08-24T04:06:06;101257.69;;;22.33;63.61
28004;BME280;15330;51.234;6.754;2022-08-24T04:08:33;101257.97;;;22.43;63.27
28004;BME280;15330;51.234;6.754;2022-08-24T04:10:59;101258.34;;;22.47;63.18
28004;BME280;15330;51.234;6.754;2022-08-24T04:13:25;101255.56;;;22.35;63.54
28004;BME280;15330;51.234;6.754;2022-08-24T04:15:50;101259.34;;;22.34;63.51
28004;BME280;15330;51.234;6.754;2022-08-24T04:18:18;101255.28;;;22.25;63.75
28004;BME280;15330;51.234;6.754;2022-08-24T04:20:43;101263.84;;;22.28;63.49
28004;BME280;15330;51.234;6.754;2022-08-24T04:23:10;101265.13;;;22.26;63.41
28004;BME280;15330;51.234;6.754;2022-08-24T04:25:46;101266.03;;;22.20;63.58
28004;BME280;15330;51.234;6.754;2022-08-24T04:28:14;101271.78;;;22.30;63.48
28004;BME280;15330;51.234;6.754;2022-08-24T04:30:41;101253.00;;;22.22;62.39
28004;BME280;15330;51.234;6.754;2022-08-24T04:33:09;101265.75;;;22.10;62.09
28004;BME280;15330;51.234;6.754;2022-08-24T04:35:42;101274.13;;;22.26;62.03
28004;BME280;15330;51.234;6.754;2022-08-24T04:38:09;101264.97;;;22.03;61.86
28004;BME280;15330;51.234;6.754;2022-08-24T04:40:38;101272.84;;;22.29;61.72
28004;BME280;15330;51.234;6.754;2022-08-24T04:43:04;101269.16;;;22.05;62.19
28004;BME280;15330;51.234;6.754;2022-08-24T04:45:29;101277.50;;;21.85;62.10
28004;BME280;15330;51.234;6.754;2022-08-24T04:47:54;101271.78;;;21.50;62.87
28004;BME280;15330;51.234;6.754;2022-08-24T04:50:20;101271.25;;;21.60;62.73
28004;BME280;15330;51.234;6.754;2022-08-24T04:52:45;101272.81;;;21.92;61.87
28004;BME280;15330;51.234;6.754;2022-08-24T04:55:11;101272.16;;;21.97;61.67
28004;BME280;15330;51.234;6.754;2022-08-24T04:57:36;101279.78;;;21.88;61.40
28004;BME280;15330;51.234;6.754;2022-08-24T05:00:04;101272.03;;;22.10;61.25
28004;BME280;15330;51.234;6.754;2022-08-24T05:02:29;101287.91;;;22.13;60.68
28004;BME280;15330;51.234;6.754;2022-08-24T05:04:56;101281.72;;;22.06;60.76
28004;BME280;15330;51.234;6.754;2022-08-24T05:07:22;101287.00;;;22.19;60.33
28004;BME280;15330;51.234;6.754;2022-08-24T05:09:48;101291.78;;;22.06;61.55
28004;BME280;15330;51.234;6.754;2022-08-24T05:12:14;101292.44;;;22.38;60.79
28004;BME280;15330;51.234;6.754;2022-08-24T05:14:39;101293.69;;;22.53;59.68
28004;BME280;15330;51.234;6.754;2022-08-24T05:17:04;101294.25;;;22.25;59.78
28004;BME280;15330;51.234;6.754;2022-08-24T05:19:30;101296.59;;;22.40;59.49
28004;BME280;15330;51.234;6.754;2022-08-24T05:21:55;101299.25;;;22.47;59.08
28004;BME280;15330;51.234;6.754;2022-08-24T05:24:21;101296.72;;;22.45;59.09
28004;BME280;15330;51.234;6.754;2022-08-24T05:26:46;101294.50;;;22.42;57.77
28004;BME280;15330;51.234;6.754;2022-08-24T05:29:12;101303.69;;;22.59;58.93
28004;BME280;15330;51.234;6.754;2022-08-24T05:31:39;101300.28;;;22.46;57.51
28004;BME280;15330;51.234;6.754;2022-08-24T05:34:06;101298.91;;;22.73;56.62
28004;BME280;15330;51.234;6.754;2022-08-24T05:36:34;101303.66;;;22.78;57.40
28004;BME280;15330;51.234;6.754;2022-08-24T05:39:05;101297.19;;;22.90;55.55
28004;BME280;15330;51.234;6.754;2022-08-24T05:41:31;101304.34;;;22.73;55.90
28004;BME280;15330;51.234;6.754;2022-08-24T05:43:58;101304.53;;;22.90;56.04
28004;BME280;15330;51.234;6.754;2022-08-24T05:46:23;101313.06;;;22.82;56.36
28004;BME280;15330;51.234;6.754;2022-08-24T05:48:49;101312.66;;;23.08;55.71
28004;BME280;15330;51.234;6.754;2022-08-24T05:51:14;101309.97;;;23.20;55.73
28004;BME280;15330;51.234;6.754;2022-08-24T05:53:40;101309.31;;;23.06;57.10
28004;BME280;15330;51.234;6.754;2022-08-24T05:56:08;101313.75;;;23.19;55.73
28004;BME280;15330;51.234;6.754;2022-08-24T05:58:34;101320.25;;;23.06;55.82
28004;BME280;15330;51.234;6.754;2022-08-24T06:01:05;101315.50;;;23.55;54.66
28004;BME280;15330;51.234;6.754;2022-08-24T06:03:30;101317.66;;;23.76;54.01
28004;BME280;15330;51.234;6.754;2022-08-24T06:05:56;101318.69;;;23.98;53.42
28004;BME280;15330;51.234;6.754;2022-08-24T06:08:21;101323.53;;;24.20;52.02
28004;BME280;15330;51.234;6.754;2022-08-24T06:10:48;101323.31;;;24.61;50.98
28004;BME280;15330;51.234;6.754;2022-08-24T06:13:13;101325.66;;;24.81;50.14
28004;BME280;15330;51.234;6.754;2022-08-24T06:15:40;101318.09;;;25.16;49.17
28004;BME280;15330;51.234;6.754;2022-08-24T06:18:07;101332.97;;;26.48;48.46
28004;BME280;15330;51.234;6.754;2022-08-24T06:20:36;101329.28;;;25.15;47.88
28004;BME280;15330;51.234;6.754;2022-08-24T06:23:02;101327.75;;;25.69;46.51
28004;BME280;15330;51.234;6.754;2022-08-24T06:25:28;101336.09;;;25.96;47.14
28004;BME280;15330;51.234;6.754;2022-08-24T06:28:12;101333.13;;;27.70;43.27
28004;BME280;15330;51.234;6.754;2022-08-24T06:30:37;101332.09;;;26.04;43.67
28004;BME280;15330;51.234;6.754;2022-08-24T06:33:04;101331.41;;;24.28;47.72
28004;BME280;15330;51.234;6.754;2022-08-24T06:35:29;101333.69;;;24.87;46.17
28004;BME280;15330;51.234;6.754;2022-08-24T06:37:55;101333.09;;;24.97;44.84
28004;BME280;15330;51.234;6.754;2022-08-24T06:40:21;101339.34;;;24.18;44.93
28004;BME280;15330;51.234;6.754;2022-08-24T06:42:46;101338.03;;;25.29;44.28
28004;BME280;15330;51.234;6.754;2022-08-24T06:45:13;101339.50;;;25.19;43.68
28004;BME280;15330;51.234;6.754;2022-08-24T06:47:39;101347.00;;;26.29;41.39
28004;BME280;15330;51.234;6.754;2022-08-24T06:50:06;101344.91;;;25.98;42.74
28004;BME280;15330;51.234;6.754;2022-08-24T06:52:34;101346.19;;;24.95;43.75
28004;BME280;15330;51.234;6.754;2022-08-24T06:55:00;101344.53;;;25.73;42.30
28004;BME280;15330;51.234;6.754;2022-08-24T06:57:25;101343.91;;;25.87;42.03
28004;BME280;15330;51.234;6.754;2022-08-24T06:59:51;101348.84;;;26.07;41.88
28004;BME280;15330;51.234;6.754;2022-08-24T07:02:17;101348.16;;;26.17;41.50
28004;BME280;15330;51.234;6.754;2022-08-24T07:04:44;101345.94;;;26.79;40.87
28004;BME280;15330;51.234;6.754;2022-08-24T07:07:10;101349.09;;;25.84;40.43
28004;BME280;15330;51.234;6.754;2022-08-24T07:09:35;101354.72;;;26.98;38.00
28004;BME280;15330;51.234;6.754;2022-08-24T07:12:01;101351.06;;;26.71;39.07
28004;BME280;15330;51.234;6.754;2022-08-24T07:14:27;101353.81;;;26.71;38.89
28004;BME280;15330;51.234;6.754;2022-08-24T07:16:52;101355.06;;;27.65;37.11
28004;BME280;15330;51.234;6.754;2022-08-24T07:19:18;101360.56;;;28.02;35.49
28004;BME280;15330;51.234;6.754;2022-08-24T07:21:43;101353.06;;;27.56;36.55
28004;BME280;15330;51.234;6.754;2022-08-24T07:24:09;101360.47;;;29.02;36.05
28004;BME280;15330;51.234;6.754;2022-08-24T07:26:35;101359.41;;;27.29;35.72
28004;BME280;15330;51.234;6.754;2022-08-24T07:29:11;101357.44;;;28.31;35.76
28004;BME280;15330;51.234;6.754;2022-08-24T07:31:40;101354.19;;;29.47;32.73
28004;BME280;15330;51.234;6.754;2022-08-24T07:34:08;101352.72;;;28.89;33.83
28004;BME280;15330;51.234;6.754;2022-08-24T07:36:35;101350.03;;;29.70;32.35
28004;BME280;15330;51.234;6.754;2022-08-24T07:39:01;101354.13;;;27.87;34.21
28004;BME280;15330;51.234;6.754;2022-08-24T07:41:27;101353.34;;;29.67;32.95
28004;BME280;15330;51.234;6.754;2022-08-24T07:43:54;101358.25;;;28.99;32.29
28004;BME280;15330;51.234;6.754;2022-08-24T07:46:20;101355.00;;;29.27;32.17
28004;BME280;15330;51.234;6.754;2022-08-24T07:48:46;101360.53;;;29.47;31.96
28004;BME280;15330;51.234;6.754;2022-08-24T07:51:14;101365.22;;;28.49;33.33
28004;BME280;15330;51.234;6.754;2022-08-24T07:53:40;101360.69;;;30.27;31.59
28004;BME280;15330;51.234;6.754;2022-08-24T07:56:06;101365.47;;;29.96;31.44
28004;BME280;15330;51.234;6.754;2022-08-24T07:58:32;101360.44;;;30.28;31.96
28004;BME280;15330;51.234;6.754;2022-08-24T08:00:58;101358.41;;;30.59;30.42
28004;BME280;15330;51.234;6.754;2022-08-24T08:03:24;101365.09;;;30.38;30.90
28004;BME280;15330;51.234;6.754;2022-08-24T08:05:58;101363.22;;;31.95;29.37
28004;BME280;15330;51.234;6.754;2022-08-24T08:08:25;101375.03;;;31.43;30.90
28004;BME280;15330;51.234;6.754;2022-08-24T08:10:51;101363.78;;;30.15;32.20
28004;BME280;15330;51.234;6.754;2022-08-24T08:13:17;101365.97;;;30.13;31.27
28004;BME280;15330;51.234;6.754;2022-08-24T08:15:42;101374.31;;;29.78;31.33
28004;BME280;15330;51.234;6.754;2022-08-24T08:18:08;101381.28;;;30.70;31.03
28004;BME280;15330;51.234;6.754;2022-08-24T08:20:36;101382.75;;;30.96;30.31
28004;BME280;15330;51.234;6.754;2022-08-24T08:23:02;101380.81;;;31.02;29.36
28004;BME280;15330;51.234;6.754;2022-08-24T08:25:50;101390.16;;;32.18;29.11
28004;BME280;15330;51.234;6.754;2022-08-24T08:28:17;101384.59;;;31.55;28.82
28004;BME280;15330;51.234;6.754;2022-08-24T08:30:44;101384.91;;;32.83;28.20
28004;BME280;15330;51.234;6.754;2022-08-24T08:33:09;101377.13;;;31.17;29.20
28004;BME280;15330;51.234;6.754;2022-08-24T08:35:35;101384.28;;;31.57;30.05
28004;BME280;15330;51.234;6.754;2022-08-24T08:38:02;101389.03;;;33.04;28.34
28004;BME280;15330;51.234;6.754;2022-08-24T08:43:05;101382.72;;;32.37;28.85
28004;BME280;15330;51.234;6.754;2022-08-24T08:48:59;101389.22;;;33.83;28.33
28004;BME280;15330;51.234;6.754;2022-08-24T08:59:55;101372.63;;;34.51;26.79
28004;BME280;15330;51.234;6.754;2022-08-24T09:10:26;101370.59;;;36.04;24.81
28004;BME280;15330;51.234;6.754;2022-08-24T09:14:02;101373.28;;;34.16;25.51
28004;BME280;15330;51.234;6.754;2022-08-24T09:18:55;101372.84;;;35.05;26.31
28004;BME280;15330;51.234;6.754;2022-08-24T09:29:51;101365.47;;;33.91;25.48
28004;BME280;15330;51.234;6.754;2022-08-24T09:35:08;101372.56;;;32.94;27.77
28004;BME280;15330;51.234;6.754;2022-08-24T09:37:57;101359.63;;;34.06;26.53
28004;BME280;15330;51.234;6.754;2022-08-24T09:53:58;101353.72;;;32.30;28.60
28004;BME280;15330;51.234;6.754;2022-08-24T10:02:17;101345.47;;;34.35;26.35
28004;BME280;15330;51.234;6.754;2022-08-24T10:05:11;101344.03;;;35.23;26.19
28004;BME280;15330;51.234;6.754;2022-08-24T10:13:27;101345.75;;;35.55;25.48
28004;BME280;15330;51.234;6.754;2022-08-24T10:24:03;101332.47;;;35.52;24.62
28004;BME280;15330;51.234;6.754;2022-08-24T10:26:44;101333.25;;;34.85;26.36
28004;BME280;15330;51.234;6.754;2022-08-24T10:29:55;101331.25;;;34.22;26.66
28004;BME280;15330;51.234;6.754;2022-08-24T10:43:56;101314.19;;;35.59;25.11
28004;BME280;15330;51.234;6.754;2022-08-24T10:46:35;101305.53;;;36.49;23.59
28004;BME280;15330;51.234;6.754;2022-08-24T10:55:23;101308.72;;;33.18;26.98
28004;BME280;15330;51.234;6.754;2022-08-24T11:00:28;101301.50;;;35.45;26.00
28004;BME280;15330;51.234;6.754;2022-08-24T11:03:13;101301.00;;;33.80;26.21
28004;BME280;15330;51.234;6.754;2022-08-24T11:05:50;101298.47;;;34.88;26.31
28004;BME280;15330;51.234;6.754;2022-08-24T11:08:30;101298.34;;;34.79;24.76
28004;BME280;15330;51.234;6.754;2022-08-24T11:11:07;101302.88;;;35.56;24.52
28004;BME280;15330;51.234;6.754;2022-08-24T11:13:35;101296.31;;;36.22;23.79
28004;BME280;15330;51.234;6.754;2022-08-24T11:16:02;101300.63;;;35.66;24.79
28004;BME280;15330;51.234;6.754;2022-08-24T11:18:50;101298.47;;;36.34;24.08
28004;BME280;15330;51.234;6.754;2022-08-24T11:24:00;101293.63;;;37.26;23.57
28004;BME280;15330;51.234;6.754;2022-08-24T11:26:27;101292.28;;;35.66;23.47
28004;BME280;15330;51.234;6.754;2022-08-24T11:28:58;101289.44;;;36.28;23.47
28004;BME280;15330;51.234;6.754;2022-08-24T11:31:34;101278.63;;;35.79;23.98
28004;BME280;15330;51.234;6.754;2022-08-24T11:34:09;101286.66;;;36.46;22.33
28004;BME280;15330;51.234;6.754;2022-08-24T11:36:40;101279.50;;;37.13;22.46
28004;BME280;15330;51.234;6.754;2022-08-24T11:44:40;101276.41;;;34.42;25.20
28004;BME280;15330;51.234;6.754;2022-08-24T11:49:46;101273.09;;;36.44;24.29
28004;BME280;15330;51.234;6.754;2022-08-24T11:57:27;101264.91;;;35.91;23.33
28004;BME280;15330;51.234;6.754;2022-08-24T12:00:03;101269.25;;;35.75;23.30
28004;BME280;15330;51.234;6.754;2022-08-24T12:07:41;101257.56;;;33.43;25.50
28004;BME280;15330;51.234;6.754;2022-08-24T12:15:43;101249.56;;;34.73;24.07
28004;BME280;15330;51.234;6.754;2022-08-24T12:18:17;101249.75;;;35.21;23.33
28004;BME280;15330;51.234;6.754;2022-08-24T12:20:47;101240.69;;;35.60;22.96
28004;BME280;15330;51.234;6.754;2022-08-24T12:23:35;101245.81;;;33.92;24.86
28004;BME280;15330;51.234;6.754;2022-08-24T12:26:20;101248.31;;;34.43;24.46
28004;BME280;15330;51.234;6.754;2022-08-24T12:28:51;101235.81;;;33.64;25.43
28004;BME280;15330;51.234;6.754;2022-08-24T12:31:21;101240.47;;;33.36;25.53
28004;BME280;15330;51.234;6.754;2022-08-24T12:33:52;101243.19;;;34.73;24.52
28004;BME280;15330;51.234;6.754;2022-08-24T12:36:29;101233.50;;;35.06;24.15
28004;BME280;15330;51.234;6.754;2022-08-24T12:39:11;101245.56;;;33.61;24.57
28004;BME280;15330;51.234;6.754;2022-08-24T12:41:53;101246.28;;;34.08;24.01
28004;BME280;15330;51.234;6.754;2022-08-24T12:44:22;101244.16;;;34.90;24.15
28004;BME280;15330;51.234;6.754;2022-08-24T12:46:52;101240.09;;;34.38;23.99
28004;BME280;15330;51.234;6.754;2022-08-24T12:49:25;101234.78;;;35.31;23.76
28004;BME280;15330;51.234;6.754;2022-08-24T12:55:04;101239.13;;;33.93;24.35
28004;BME280;15330;51.234;6.754;2022-08-24T13:00:43;101226.13;;;35.72;23.54
28004;BME280;15330;51.234;6.754;2022-08-24T13:03:21;101226.63;;;35.12;23.21
28004;BME280;15330;51.234;6.754;2022-08-24T13:05:52;101240.13;;;33.97;24.24
28004;BME280;15330;51.234;6.754;2022-08-24T13:08:40;101231.38;;;34.67;23.45
28004;BME280;15330;51.234;6.754;2022-08-24T13:11:13;101236.84;;;35.79;23.20
28004;BME280;15330;51.234;6.754;2022-08-24T13:13:47;101243.94;;;35.93;22.62
28004;BME280;15330;51.234;6.754;2022-08-24T13:21:46;101224.56;;;34.73;22.98
28004;BME280;15330;51.234;6.754;2022-08-24T13:29:38;101213.50;;;35.26;22.98
28004;BME280;15330;51.234;6.754;2022-08-24T13:32:07;101223.28;;;35.24;23.17
28004;BME280;15330;51.234;6.754;2022-08-24T13:34:44;101222.81;;;35.61;23.61
28004;BME280;15330;51.234;6.754;2022-08-24T13:50:30;101220.75;;;33.05;24.69
28004;BME280;15330;51.234;6.754;2022-08-24T14:04:42;101202.44;;;34.46;23.79
28004;BME280;15330;51.234;6.754;2022-08-24T14:07:25;101204.94;;;34.06;23.36
28004;BME280;15330;51.234;6.754;2022-08-24T14:19:40;101190.19;;;34.47;23.18
28004;BME280;15330;51.234;6.754;2022-08-24T14:24:42;101192.13;;;33.69;22.89
28004;BME280;15330;51.234;6.754;2022-08-24T14:27:33;101188.63;;;33.36;22.42
28004;BME280;15330;51.234;6.754;2022-08-24T14:46:26;101183.19;;;32.99;23.28
28004;BME280;15330;51.234;6.754;2022-08-24T14:52:09;101174.22;;;33.34;22.62
28004;BME280;15330;51.234;6.754;2022-08-24T14:54:43;101176.75;;;33.17;22.21
28004;BME280;15330;51.234;6.754;2022-08-24T15:05:22;101160.78;;;33.55;23.13
28004;BME280;15330;51.234;6.754;2022-08-24T15:08:38;101161.28;;;33.43;23.01
28004;BME280;15330;51.234;6.754;2022-08-24T15:10:57;101159.66;;;33.29;23.09
28004;BME280;15330;51.234;6.754;2022-08-24T15:13:28;101151.84;;;33.31;22.81
28004;BME280;15330;51.234;6.754;2022-08-24T15:21:43;101152.38;;;32.68;23.25
28004;BME280;15330;51.234;6.754;2022-08-24T15:29:46;101150.25;;;33.11;23.18
28004;BME280;15330;51.234;6.754;2022-08-24T15:32:12;101149.63;;;33.00;23.49
28004;BME280;15330;51.234;6.754;2022-08-24T15:34:45;101139.34;;;33.01;23.45
28004;BME280;15330;51.234;6.754;2022-08-24T15:37:36;101134.31;;;33.03;23.96
28004;BME280;15330;51.234;6.754;2022-08-24T15:40:00;101125.50;;;33.01;23.92
28004;BME280;15330;51.234;6.754;2022-08-24T15:42:28;101120.78;;;33.15;23.85
28004;BME280;15330;51.234;6.754;2022-08-24T15:45:00;101128.66;;;32.94;23.64
28004;BME280;15330;51.234;6.754;2022-08-24T15:47:32;101119.09;;;32.87;24.09
28004;BME280;15330;51.234;6.754;2022-08-24T15:52:52;101131.94;;;32.96;23.97
28004;BME280;15330;51.234;6.754;2022-08-24T15:55:30;101123.50;;;32.55;23.57
28004;BME280;15330;51.234;6.754;2022-08-24T15:58:00;101120.31;;;32.62;23.93
28004;BME280;15330;51.234;6.754;2022-08-24T16:00:36;101124.88;;;32.90;23.92
28004;BME280;15330;51.234;6.754;2022-08-24T16:05:50;101129.06;;;32.88;24.50
28004;BME280;15330;51.234;6.754;2022-08-24T16:08:17;101121.47;;;32.79;23.82
28004;BME280;15330;51.234;6.754;2022-08-24T16:15:49;101117.84;;;32.60;23.67
28004;BME280;15330;51.234;6.754;2022-08-24T16:18:16;101119.00;;;32.59;23.82
28004;BME280;15330;51.234;6.754;2022-08-24T16:20:43;101119.00;;;32.59;24.01
28004;BME280;15330;51.234;6.754;2022-08-24T16:23:20;101117.44;;;32.53;23.64
28004;BME280;15330;51.234;6.754;2022-08-24T16:25:46;101117.59;;;32.43;24.13
28004;BME280;15330;51.234;6.754;2022-08-24T16:30:51;101121.56;;;32.56;24.37
28004;BME280;15330;51.234;6.754;2022-08-24T16:33:37;101111.69;;;32.50;24.04
28004;BME280;15330;51.234;6.754;2022-08-24T16:36:09;101112.81;;;32.49;24.35
28004;BME280;15330;51.234;6.754;2022-08-24T16:38:37;101108.09;;;32.49;25.04
28004;BME280;15330;51.234;6.754;2022-08-24T16:41:08;101116.25;;;32.40;25.10
28004;BME280;15330;51.234;6.754;2022-08-24T16:43:36;101112.09;;;32.24;24.88
28004;BME280;15330;51.234;6.754;2022-08-24T16:46:04;101119.13;;;32.35;24.06
28004;BME280;15330;51.234;6.754;2022-08-24T16:48:30;101113.97;;;32.29;24.46
28004;BME280;15330;51.234;6.754;2022-08-24T16:50:56;101119.28;;;32.25;25.05